createdAt,value
2019-03-08T00:01:09.007Z,6.70
2019-03-08T00:03:40.006Z,6.70
2019-03-08T00:06:09.623Z,6.70
2019-03-08T00:08:39.057Z,6.70
2019-03-08T00:11:08.637Z,6.70
2019-03-08T00:13:38.140Z,6.70
2019-03-08T00:16:07.704Z,6.70
2019-03-08T00:18:37.316Z,6.70
2019-03-08T00:21:06.938Z,6.70
2019-03-08T00:23:36.613Z,6.70
2019-03-08T00:26:06.086Z,6.70
2019-03-08T00:28:35.618Z,6.70
2019-03-08T00:31:05.487Z,6.70
2019-03-08T00:33:34.957Z,6.70
2019-03-08T00:36:04.502Z,6.60
2019-03-08T00:38:33.970Z,6.60
2019-03-08T00:41:03.439Z,6.60
2019-03-08T00:43:32.844Z,6.60
2019-03-08T00:46:03.357Z,6.60
2019-03-08T00:48:32.879Z,6.70
2019-03-08T00:51:02.653Z,6.70
2019-03-08T00:53:32.110Z,6.70
2019-03-08T00:56:01.784Z,6.70
2019-03-08T00:58:32.952Z,6.70
2019-03-08T01:01:02.454Z,6.80
2019-03-08T01:03:31.930Z,6.80
2019-03-08T01:06:01.439Z,6.80
2019-03-08T01:08:31.059Z,6.90
2019-03-08T01:11:00.563Z,7.00
2019-03-08T01:13:30.187Z,7.00
2019-03-08T01:15:59.796Z,7.00
2019-03-08T01:18:29.575Z,7.00
2019-03-08T01:20:59.044Z,7.10
2019-03-08T01:23:28.516Z,7.10
2019-03-08T01:25:58.073Z,7.10
2019-03-08T01:28:27.719Z,7.10
2019-03-08T01:30:57.490Z,7.10
2019-03-08T01:33:28.248Z,7.10
2019-03-08T01:35:59.222Z,7.10
2019-03-08T01:38:28.698Z,7.10
2019-03-08T01:40:58.240Z,7.10
2019-03-08T01:43:27.773Z,7.10
2019-03-08T01:45:57.341Z,7.20
2019-03-08T01:48:26.811Z,7.20
2019-03-08T01:50:56.379Z,7.20
2019-03-08T01:53:26.060Z,7.20
2019-03-08T01:55:55.533Z,7.20
2019-03-08T01:58:25.382Z,7.20
2019-03-08T02:00:54.887Z,7.20
2019-03-08T02:03:24.357Z,7.30
2019-03-08T02:05:53.794Z,7.20
2019-03-08T02:08:23.327Z,7.20
2019-03-08T02:10:52.759Z,7.20
2019-03-08T02:13:22.367Z,7.20
2019-03-08T02:15:51.942Z,7.20
2019-03-08T02:18:21.421Z,7.20
2019-03-08T02:20:52.277Z,7.20
2019-03-08T02:23:21.961Z,7.20
2019-03-08T02:25:51.700Z,7.20
2019-03-08T02:28:21.191Z,7.30
2019-03-08T02:30:50.615Z,7.20
2019-03-08T02:33:20.119Z,7.20
2019-03-08T02:35:49.596Z,7.20
2019-03-08T02:38:19.078Z,7.20
2019-03-08T02:40:48.503Z,7.20
2019-03-08T02:43:18.625Z,7.10
2019-03-08T02:45:48.138Z,7.10
2019-03-08T02:48:17.687Z,7.10
2019-03-08T02:50:48.711Z,7.10
2019-03-08T02:53:18.564Z,7.10
2019-03-08T02:55:48.097Z,7.10
2019-03-08T02:58:17.610Z,7.00
2019-03-08T03:00:47.473Z,7.10
2019-03-08T03:03:17.443Z,7.00
2019-03-08T03:05:47.063Z,7.00
2019-03-08T03:08:16.679Z,7.00
2019-03-08T03:10:46.223Z,6.90
2019-03-08T03:13:15.799Z,6.90
2019-03-08T03:15:45.269Z,6.90
2019-03-08T03:18:14.712Z,6.90
2019-03-08T03:20:44.250Z,7.00
2019-03-08T03:23:13.841Z,7.00
2019-03-08T03:25:43.465Z,7.00
2019-03-08T03:28:13.083Z,7.00
2019-03-08T03:30:42.695Z,7.00
2019-03-08T03:33:12.407Z,6.90
2019-03-08T03:35:41.893Z,6.80
2019-03-08T03:38:11.344Z,6.80
2019-03-08T03:40:40.807Z,6.80
2019-03-08T03:43:10.374Z,6.80
2019-03-08T03:45:39.982Z,6.80
2019-03-08T03:48:12.240Z,6.80
2019-03-08T03:50:41.773Z,6.80
2019-03-08T03:53:11.243Z,6.80
2019-03-08T03:55:40.845Z,6.80
2019-03-08T03:58:10.342Z,6.70
2019-03-08T04:00:40.184Z,6.60
2019-03-08T04:03:09.729Z,6.60
2019-03-08T04:05:42.218Z,6.50
2019-03-08T04:08:11.677Z,6.60
2019-03-08T04:10:41.836Z,6.60
2019-03-08T04:13:11.507Z,6.60
2019-03-08T04:15:41.015Z,6.70
2019-03-08T04:18:10.474Z,6.70
2019-03-08T04:20:39.982Z,6.70
2019-03-08T04:23:09.520Z,6.80
2019-03-08T04:25:39.125Z,6.80
2019-03-08T04:28:08.615Z,6.80
2019-03-08T04:30:38.112Z,6.60
2019-03-08T04:33:07.629Z,6.50
2019-03-08T04:35:37.059Z,6.50
2019-03-08T04:38:06.533Z,6.40
2019-03-08T04:40:36.103Z,6.40
2019-03-08T04:43:05.617Z,6.40
2019-03-08T04:45:35.109Z,6.40
2019-03-08T04:48:04.653Z,6.50
2019-03-08T04:50:34.128Z,6.60
2019-03-08T04:53:03.869Z,6.60
2019-03-08T04:55:33.701Z,6.60
2019-03-08T04:58:03.253Z,6.70
2019-03-08T05:00:32.789Z,6.70
2019-03-08T05:03:02.250Z,6.70
2019-03-08T05:05:31.721Z,6.70
2019-03-08T05:08:01.256Z,6.70
2019-03-08T05:10:30.808Z,6.60
2019-03-08T05:13:00.271Z,6.60
2019-03-08T05:15:29.750Z,6.60
2019-03-08T05:17:59.671Z,6.40
2019-03-08T05:20:30.686Z,6.30
2019-03-08T05:23:00.600Z,6.30
2019-03-08T05:25:31.243Z,6.20
2019-03-08T05:28:01.708Z,6.20
2019-03-08T05:30:31.255Z,6.20
2019-03-08T05:33:00.731Z,6.30
2019-03-08T05:35:30.191Z,6.30
2019-03-08T05:37:59.667Z,6.30
2019-03-08T05:40:29.137Z,6.40
2019-03-08T05:42:58.611Z,6.40
2019-03-08T05:45:29.354Z,6.40
2019-03-08T05:47:58.926Z,6.60
2019-03-08T05:50:28.763Z,6.60
2019-03-08T05:52:58.242Z,6.60
2019-03-08T05:55:28.193Z,6.60
2019-03-08T05:57:57.658Z,6.60
2019-03-08T06:00:32.145Z,6.50
2019-03-08T06:03:00.015Z,6.40
2019-03-08T06:05:29.487Z,6.40
2019-03-08T06:07:58.955Z,6.40
2019-03-08T06:10:33.856Z,6.30
2019-03-08T06:13:05.088Z,6.30
2019-03-08T06:15:35.230Z,6.30
2019-03-08T06:18:05.135Z,6.30
2019-03-08T06:20:34.743Z,6.20
2019-03-08T06:23:04.701Z,6.20
2019-03-08T06:25:34.374Z,6.30
2019-03-08T06:28:04.241Z,6.50
2019-03-08T06:30:34.003Z,6.50
2019-03-08T06:33:04.214Z,6.60
2019-03-08T06:35:33.762Z,6.60
2019-03-08T06:38:03.235Z,6.60
2019-03-08T06:40:32.678Z,6.50
2019-03-08T06:43:02.151Z,6.40
2019-03-08T06:45:32.268Z,6.50
2019-03-08T06:48:01.740Z,6.60
2019-03-08T06:50:31.179Z,6.60
2019-03-08T06:53:01.071Z,6.40
2019-03-08T06:55:31.640Z,6.10
2019-03-08T06:58:02.950Z,5.90
2019-03-08T07:00:47.825Z,6.00
2019-03-08T07:03:17.303Z,6.00
2019-03-08T07:05:47.750Z,6.30
2019-03-08T07:08:17.388Z,6.30
2019-03-08T07:10:47.227Z,6.40
2019-03-08T07:13:16.746Z,6.40
2019-03-08T07:15:46.279Z,6.50
2019-03-08T07:18:15.770Z,6.50
2019-03-08T07:20:46.826Z,6.60
2019-03-08T07:23:27.896Z,6.60
2019-03-08T07:26:10.060Z,6.50
2019-03-08T07:28:43.910Z,6.30
2019-03-08T07:31:17.677Z,6.20
2019-03-08T07:34:05.393Z,6.20
2019-03-08T07:36:42.911Z,6.30
2019-03-08T07:39:35.014Z,6.40
2019-03-08T07:42:18.587Z,6.60
2019-03-08T07:44:55.494Z,6.90
2019-03-08T07:47:42.548Z,7.00
2019-03-08T07:50:17.979Z,6.70
2019-03-08T07:52:55.340Z,6.10
2019-03-08T07:55:30.972Z,5.80
2019-03-08T07:58:04.636Z,5.80
2019-03-08T08:00:35.806Z,5.90
2019-03-08T08:03:09.593Z,6.20
2019-03-08T08:05:57.989Z,6.30
2019-03-08T08:08:41.440Z,6.50
2019-03-08T08:11:24.698Z,6.60
2019-03-08T08:13:58.348Z,6.80
2019-03-08T08:16:32.355Z,6.90
2019-03-08T08:19:09.486Z,6.90
2019-03-08T08:21:46.582Z,6.90
2019-03-08T08:24:17.692Z,6.90
2019-03-08T08:26:58.120Z,7.00
2019-03-08T08:29:35.009Z,6.90
2019-03-08T08:32:01.972Z,6.90
2019-03-08T08:34:41.919Z,7.00
2019-03-08T08:37:29.573Z,7.00
2019-03-08T08:40:06.511Z,7.00
2019-03-08T08:42:53.016Z,7.00
2019-03-08T08:45:31.464Z,6.90
2019-03-08T08:48:02.574Z,6.90
2019-03-08T08:50:39.668Z,6.90
2019-03-08T08:53:27.431Z,6.90
2019-03-08T08:55:58.619Z,7.00
2019-03-08T08:58:32.566Z,6.90
2019-03-08T09:01:03.832Z,6.90
2019-03-08T09:03:34.985Z,7.00
2019-03-08T09:06:07.140Z,7.20
2019-03-08T09:08:38.218Z,7.50
2019-03-08T09:11:12.604Z,7.60
2019-03-08T09:13:49.521Z,7.70
2019-03-08T09:16:24.023Z,7.70
2019-03-08T09:18:57.797Z,7.60
2019-03-08T09:21:43.824Z,7.70
2019-03-08T09:24:17.649Z,7.80
2019-03-08T09:26:50.368Z,8.00
2019-03-08T09:29:22.996Z,8.00
2019-03-08T09:31:59.855Z,7.90
2019-03-08T09:34:30.865Z,8.00
2019-03-08T09:37:20.157Z,8.00
2019-03-08T09:39:56.867Z,8.00
2019-03-08T09:42:33.669Z,8.10
2019-03-08T09:45:21.851Z,8.00
2019-03-08T09:48:09.176Z,8.00
2019-03-08T09:50:40.485Z,8.20
2019-03-08T09:53:14.746Z,8.60
2019-03-08T09:56:04.339Z,9.00
2019-03-08T09:58:41.384Z,8.90
2019-03-08T10:01:18.494Z,8.50
2019-03-08T10:04:07.792Z,8.30
2019-03-08T10:06:48.072Z,7.80
2019-03-08T10:09:31.352Z,7.70
2019-03-08T10:12:11.759Z,7.60
2019-03-08T10:14:58.295Z,7.90
2019-03-08T10:17:30.994Z,8.20
2019-03-08T10:20:10.887Z,8.10
2019-03-08T10:22:45.142Z,8.00
2019-03-08T10:25:19.279Z,7.90
2019-03-08T10:27:53.132Z,8.00
2019-03-08T10:30:26.907Z,8.00
2019-03-08T10:32:58.229Z,7.90
2019-03-08T10:35:29.438Z,8.10
2019-03-08T10:38:00.583Z,8.10
2019-03-08T10:40:48.407Z,8.20
2019-03-08T10:43:24.513Z,8.30
2019-03-08T10:46:15.775Z,8.80
2019-03-08T10:48:57.168Z,8.90
2019-03-08T10:51:31.013Z,9.20
2019-03-08T10:54:18.397Z,9.10
2019-03-08T10:56:49.466Z,9.20
2019-03-08T10:59:37.023Z,9.10
2019-03-08T11:02:27.062Z,8.70
2019-03-08T11:05:01.364Z,8.50
2019-03-08T11:07:35.616Z,8.50
2019-03-08T11:10:12.710Z,8.50
2019-03-08T11:12:52.994Z,8.40
2019-03-08T11:15:27.340Z,8.40
2019-03-08T11:17:58.417Z,8.40
2019-03-08T11:20:38.364Z,8.50
2019-03-08T11:23:25.928Z,8.90
2019-03-08T11:25:56.991Z,9.00
2019-03-08T11:28:44.415Z,8.90
2019-03-08T11:31:25.166Z,9.00
2019-03-08T11:33:58.791Z,8.90
2019-03-08T11:36:33.094Z,9.00
2019-03-08T11:39:10.179Z,9.20
2019-03-08T11:41:44.363Z,9.30
2019-03-08T11:44:18.256Z,9.10
2019-03-08T11:47:05.946Z,8.70
2019-03-08T11:49:37.035Z,8.80
2019-03-08T11:52:20.308Z,9.00
2019-03-08T11:55:17.386Z,8.80
2019-03-08T11:58:05.248Z,9.10
2019-03-08T12:00:36.450Z,9.40
2019-03-08T12:03:17.180Z,9.60
2019-03-08T12:06:05.095Z,9.70
2019-03-08T12:08:41.913Z,9.30
2019-03-08T12:11:31.849Z,9.00
2019-03-08T12:14:03.209Z,8.70
2019-03-08T12:16:51.095Z,8.90
2019-03-08T12:19:25.028Z,9.00
2019-03-08T12:22:05.125Z,8.80
2019-03-08T12:24:45.524Z,8.90
2019-03-08T12:27:16.690Z,9.00
2019-03-08T12:29:59.571Z,9.00
2019-03-08T12:32:33.652Z,9.00
2019-03-08T12:35:21.123Z,9.30
2019-03-08T12:37:58.154Z,10.10
2019-03-08T12:40:35.221Z,9.80
2019-03-08T12:43:18.585Z,9.40
2019-03-08T12:46:05.995Z,9.20
2019-03-08T12:48:44.039Z,9.40
2019-03-08T12:51:31.266Z,9.40
2019-03-08T12:54:20.576Z,9.30
2019-03-08T12:57:07.843Z,9.10
2019-03-08T12:59:39.564Z,9.10
2019-03-08T13:02:19.865Z,8.90
2019-03-08T13:05:00.361Z,8.90
2019-03-08T13:07:31.492Z,8.90
2019-03-08T13:10:11.868Z,9.00
2019-03-08T13:12:41.445Z,9.00
2019-03-08T13:15:13.683Z,8.80
2019-03-08T13:17:43.181Z,8.80
2019-03-08T13:20:17.647Z,8.90
2019-03-08T13:22:47.180Z,8.90
2019-03-08T13:25:16.822Z,9.10
2019-03-08T13:27:46.635Z,9.10
2019-03-08T13:30:18.838Z,9.00
2019-03-08T13:32:48.407Z,8.90
2019-03-08T13:35:17.954Z,8.90
2019-03-08T13:37:47.604Z,8.90
2019-03-08T13:40:17.315Z,8.80
2019-03-08T13:42:46.755Z,8.90
2019-03-08T13:45:18.547Z,9.20
2019-03-08T13:47:47.998Z,9.60
2019-03-08T13:50:17.475Z,10.10
2019-03-08T13:52:47.084Z,10.10
2019-03-08T13:55:19.893Z,9.70
2019-03-08T13:57:49.420Z,9.90
2019-03-08T14:00:19.947Z,10.50
2019-03-08T14:02:49.492Z,10.10
2019-03-08T14:05:20.580Z,10.00
2019-03-08T14:07:50.152Z,9.90
2019-03-08T14:10:21.730Z,10.00
2019-03-08T14:12:51.272Z,10.40
2019-03-08T14:15:20.820Z,10.40
2019-03-08T14:17:50.359Z,10.00
2019-03-08T14:20:27.058Z,9.70
2019-03-08T14:22:56.547Z,9.60
2019-03-08T14:25:26.096Z,9.80
2019-03-08T14:27:55.632Z,10.20
2019-03-08T14:30:45.139Z,10.40
2019-03-08T14:33:14.578Z,10.50
2019-03-08T14:35:44.451Z,10.50
2019-03-08T14:38:14.054Z,10.00
2019-03-08T14:40:53.290Z,9.70
2019-03-08T14:43:27.220Z,9.80
2019-03-08T14:46:11.813Z,10.40
2019-03-08T14:48:42.558Z,10.30
2019-03-08T14:51:13.072Z,10.10
2019-03-08T14:53:42.649Z,9.50
2019-03-08T14:56:13.276Z,9.30
2019-03-08T14:58:42.935Z,9.10
2019-03-08T15:01:12.932Z,9.20
2019-03-08T15:03:44.137Z,9.10
2019-03-08T15:06:13.757Z,9.10
2019-03-08T15:08:43.289Z,9.20
2019-03-08T15:11:12.948Z,9.20
2019-03-08T15:13:43.707Z,9.00
2019-03-08T15:16:13.205Z,8.90
2019-03-08T15:18:42.609Z,8.90
2019-03-08T15:21:12.186Z,8.70
2019-03-08T15:23:41.599Z,8.70
2019-03-08T15:26:11.332Z,8.90
2019-03-08T15:28:40.790Z,9.50
2019-03-08T15:31:10.338Z,9.30
2019-03-08T15:33:39.947Z,9.00
2019-03-08T15:36:09.419Z,8.90
2019-03-08T15:38:38.979Z,8.90
2019-03-08T15:41:08.488Z,9.10
2019-03-08T15:43:37.951Z,9.10
2019-03-08T15:46:07.395Z,9.10
2019-03-08T15:48:36.999Z,8.90
2019-03-08T15:51:06.496Z,8.80
2019-03-08T15:53:35.884Z,8.70
2019-03-08T15:56:06.824Z,8.70
2019-03-08T15:58:36.312Z,8.50
2019-03-08T16:01:08.009Z,8.30
2019-03-08T16:03:37.287Z,8.10
2019-03-08T16:06:07.485Z,8.10
2019-03-08T16:08:39.709Z,8.00
2019-03-08T16:11:08.208Z,7.90
2019-03-08T16:13:37.820Z,7.80
2019-03-08T16:16:07.549Z,7.70
2019-03-08T16:18:40.034Z,7.60
2019-03-08T16:21:08.156Z,7.50
2019-03-08T16:23:37.597Z,7.50
2019-03-08T16:26:07.143Z,7.40
2019-03-08T16:28:37.111Z,7.40
2019-03-08T16:31:25.630Z,7.40
2019-03-08T16:34:02.526Z,7.40
2019-03-08T16:36:33.727Z,7.30
2019-03-08T16:39:20.968Z,7.30
2019-03-08T16:42:10.007Z,7.20
2019-03-08T16:44:57.648Z,7.20
2019-03-08T16:47:31.542Z,7.10
2019-03-08T16:50:05.497Z,7.10
2019-03-08T16:52:46.779Z,7.10
2019-03-08T16:55:19.543Z,7.00
2019-03-08T16:57:59.479Z,7.00
2019-03-08T17:00:36.112Z,7.00
2019-03-08T17:03:16.098Z,6.90
2019-03-08T17:05:47.292Z,6.90
2019-03-08T17:08:27.693Z,6.90
2019-03-08T17:11:04.507Z,6.80
2019-03-08T17:13:35.923Z,6.80
2019-03-08T17:16:07.385Z,6.70
2019-03-08T17:18:55.242Z,6.70
2019-03-08T17:21:39.906Z,6.60
2019-03-08T17:24:11.134Z,6.60
2019-03-08T17:26:45.385Z,6.60
2019-03-08T17:29:16.476Z,6.60
2019-03-08T17:31:53.116Z,6.60
2019-03-08T17:34:40.548Z,6.50
2019-03-08T17:37:17.280Z,6.50
2019-03-08T17:40:06.751Z,6.40
2019-03-08T17:42:40.903Z,6.40
2019-03-08T17:45:21.630Z,6.40
2019-03-08T17:48:08.329Z,6.30
2019-03-08T17:50:54.462Z,6.30
2019-03-08T17:53:34.595Z,6.20
2019-03-08T17:56:11.691Z,6.20
2019-03-08T17:58:47.848Z,6.20
2019-03-08T18:01:24.634Z,6.20
2019-03-08T18:03:58.480Z,6.10
2019-03-08T18:06:38.863Z,6.10
2019-03-08T18:09:12.992Z,6.10
2019-03-08T18:11:53.268Z,6.10
2019-03-08T18:14:30.249Z,6.10
2019-03-08T18:17:01.314Z,6.10
2019-03-08T18:19:32.522Z,6.10
2019-03-08T18:22:09.409Z,6.10
2019-03-08T18:24:49.694Z,6.10
2019-03-08T18:27:26.998Z,6.10
2019-03-08T18:30:07.440Z,6.10
2019-03-08T18:32:44.595Z,6.10
2019-03-08T18:35:31.881Z,6.10
2019-03-08T18:38:12.550Z,6.00
2019-03-08T18:40:43.667Z,6.00
2019-03-08T18:43:29.729Z,6.00
2019-03-08T18:46:06.722Z,6.00
2019-03-08T18:48:52.765Z,6.10
2019-03-08T18:51:35.875Z,6.20
2019-03-08T18:54:23.041Z,6.10
2019-03-08T18:56:57.455Z,6.10
2019-03-08T18:59:46.243Z,6.10
2019-03-08T19:02:20.522Z,6.20
2019-03-08T19:04:54.997Z,6.20
2019-03-08T19:07:44.024Z,6.20
2019-03-08T19:10:15.298Z,6.30
2019-03-08T19:12:46.797Z,6.20
2019-03-08T19:15:23.820Z,6.10
2019-03-08T19:18:09.936Z,6.10
2019-03-08T19:20:41.165Z,6.00
2019-03-08T19:23:15.376Z,5.90
2019-03-08T19:26:02.757Z,5.90
2019-03-08T19:28:36.990Z,5.80
2019-03-08T19:31:13.890Z,5.80
2019-03-08T19:33:44.968Z,5.80
2019-03-08T19:36:18.696Z,5.70
2019-03-08T19:39:07.720Z,5.70
2019-03-08T19:41:41.642Z,5.70
2019-03-08T19:44:12.912Z,5.70
2019-03-08T19:46:47.327Z,5.60
2019-03-08T19:49:18.408Z,5.50
2019-03-08T19:51:58.490Z,5.40
2019-03-08T19:54:29.583Z,5.40
2019-03-08T19:57:08.149Z,5.30
2019-03-08T19:59:51.539Z,5.30
2019-03-08T20:02:22.761Z,5.20
2019-03-08T20:04:53.879Z,5.20
2019-03-08T20:07:24.949Z,5.20
2019-03-08T20:10:14.341Z,5.10
2019-03-08T20:13:02.239Z,5.10
2019-03-08T20:15:51.237Z,5.10
2019-03-08T20:18:31.296Z,5.10
2019-03-08T20:21:11.200Z,5.00
2019-03-08T20:23:42.366Z,5.00
2019-03-08T20:26:20.789Z,5.10
2019-03-08T20:29:01.018Z,5.10
2019-03-08T20:31:34.957Z,5.10
2019-03-08T20:34:06.161Z,5.10
2019-03-08T20:36:43.295Z,5.10
2019-03-08T20:39:20.311Z,5.10
2019-03-08T20:41:51.401Z,5.10
2019-03-08T20:44:22.702Z,5.20
2019-03-08T20:46:53.833Z,5.30
2019-03-08T20:49:23.278Z,5.30
2019-03-08T20:51:52.756Z,5.30
2019-03-08T20:54:22.333Z,5.30
2019-03-08T20:56:52.184Z,5.30
2019-03-08T20:59:21.574Z,5.30
2019-03-08T21:01:51.100Z,5.40
2019-03-08T21:04:22.284Z,5.40
2019-03-08T21:06:51.775Z,5.40
2019-03-08T21:09:21.800Z,5.40
2019-03-08T21:11:51.533Z,5.40
2019-03-08T21:14:21.065Z,5.40
2019-03-08T21:16:50.489Z,5.30
2019-03-08T21:19:19.943Z,5.30
2019-03-08T21:21:50.276Z,5.30
2019-03-08T21:24:19.872Z,5.30
2019-03-08T21:26:49.485Z,5.30
2019-03-08T21:29:18.876Z,5.40
2019-03-08T21:31:48.663Z,5.30
2019-03-08T21:34:18.200Z,5.30
2019-03-08T21:36:48.088Z,5.30
2019-03-08T21:39:17.629Z,5.40
2019-03-08T21:41:47.089Z,5.40
2019-03-08T21:44:16.643Z,5.50
2019-03-08T21:46:46.148Z,5.50
2019-03-08T21:49:16.234Z,5.60
2019-03-08T21:51:45.745Z,5.60
2019-03-08T21:54:15.295Z,5.70
2019-03-08T21:56:44.807Z,5.70
2019-03-08T21:59:14.284Z,5.80
2019-03-08T22:01:43.714Z,5.80
2019-03-08T22:04:14.892Z,5.90
2019-03-08T22:06:44.342Z,6.00
2019-03-08T22:09:18.624Z,6.00
2019-03-08T22:11:48.523Z,6.00
2019-03-08T22:14:18.026Z,6.10
2019-03-08T22:16:47.446Z,6.10
2019-03-08T22:19:16.917Z,6.20
2019-03-08T22:21:46.352Z,6.10
2019-03-08T22:24:15.992Z,6.20
2019-03-08T22:26:45.535Z,6.30
2019-03-08T22:29:15.142Z,6.30
2019-03-08T22:31:44.579Z,6.40
2019-03-08T22:34:14.110Z,6.40
2019-03-08T22:36:43.993Z,6.40
2019-03-08T22:39:13.566Z,6.40
2019-03-08T22:41:43.034Z,6.30
2019-03-08T22:44:12.431Z,6.40
2019-03-08T22:46:45.166Z,6.30
2019-03-08T22:49:13.135Z,6.20
2019-03-08T22:51:42.558Z,6.30
2019-03-08T22:54:11.969Z,6.40
2019-03-08T22:56:41.470Z,6.40
2019-03-08T22:59:10.931Z,6.40
2019-03-08T23:01:45.189Z,6.40
2019-03-08T23:04:14.659Z,6.50
2019-03-08T23:06:44.087Z,6.40
2019-03-08T23:09:15.411Z,6.40
2019-03-08T23:11:46.812Z,6.30
2019-03-08T23:14:16.282Z,6.40
2019-03-08T23:16:45.643Z,6.30
2019-03-08T23:19:15.382Z,6.40
2019-03-08T23:21:44.877Z,6.30
2019-03-08T23:24:14.399Z,6.30
2019-03-08T23:26:48.238Z,6.30
2019-03-08T23:29:22.198Z,6.30
2019-03-08T23:31:53.278Z,6.30
2019-03-08T23:34:22.828Z,6.30
2019-03-08T23:36:52.259Z,6.20
2019-03-08T23:39:21.727Z,6.20
2019-03-08T23:41:51.249Z,6.20
2019-03-08T23:44:23.440Z,6.30
2019-03-08T23:46:52.811Z,6.30
2019-03-08T23:49:22.283Z,6.30
2019-03-08T23:51:51.719Z,6.30
2019-03-08T23:54:21.419Z,6.30
2019-03-08T23:56:51.006Z,6.30
2019-03-08T23:59:20.399Z,6.30
